Time;durP1;ratioP1;P1;durP2;ratioP2;P2;SDS_P1;SDS_P2;PMS_P1;PMS_P2;Temp;Humidity;BMP_temperature;BMP_pressure;BME280_temperature;BME280_humidity;BME280_pressure;Samples;Min_cycle;Max_cycle;Signal;HPM_P1;HPM_P2
2023/07/01 00:00:53;;;;;;;25.58;17.45;;;25.90;94.90;;;;;;5054660;28;20040;-74
2023/07/01 00:03:57;;;;;;;33.78;19.15;;;25.90;94.70;;;;;;5054361;28;20048;-74
2023/07/01 00:07:03;;;;;;;31.30;19.10;;;25.70;94.50;;;;;;5054379;28;20055;-74
2023/07/01 00:10:07;;;;;;;25.98;17.80;;;25.60;94.70;;;;;;5054065;28;20040;-74
2023/07/01 00:13:11;;;;;;;36.25;19.65;;;25.50;95.20;;;;;;5054257;28;20044;-74
2023/07/01 00:16:15;;;;;;;27.88;19.33;;;25.40;95.30;;;;;;5054628;28;20048;-74
2023/07/01 00:19:19;;;;;;;24.83;19.50;;;25.50;95.40;;;;;;5053850;28;20056;-73
2023/07/01 00:22:26;;;;;;;31.33;19.17;;;25.50;95.30;;;;;;5053702;28;20048;-74
2023/07/01 00:25:30;;;;;;;28.13;19.95;;;25.30;95.40;;;;;;5053790;28;20048;-73
2023/07/01 00:28:34;;;;;;;34.83;18.80;;;25.30;95.60;;;;;;5053969;28;20048;-73
2023/07/01 00:31:38;;;;;;;26.30;18.10;;;25.30;95.40;;;;;;5054146;28;20598;-74
2023/07/01 00:34:42;;;;;;;29.38;19.17;;;25.30;95.50;;;;;;5053906;28;20068;-74
2023/07/01 00:37:46;;;;;;;26.23;19.35;;;25.40;95.60;;;;;;5054142;28;20052;-74
2023/07/01 00:40:50;;;;;;;28.55;19.83;;;25.40;95.10;;;;;;5052594;28;20044;-73
2023/07/01 00:43:54;;;;;;;28.77;18.45;;;25.30;95.30;;;;;;5053590;28;20052;-74
2023/07/01 00:46:57;;;;;;;30.67;17.17;;;25.30;95.10;;;;;;5053716;28;20071;-74
2023/07/01 00:50:02;;;;;;;29.45;19.00;;;25.30;95.20;;;;;;5053452;28;20048;-74
2023/07/01 00:53:07;;;;;;;24.60;17.10;;;25.30;95.30;;;;;;5053459;28;20044;-74
2023/07/01 00:56:11;;;;;;;30.15;19.10;;;25.40;95.50;;;;;;5053221;28;20507;-74
2023/07/01 00:59:15;;;;;;;25.40;17.33;;;25.40;95.20;;;;;;5053195;28;20044;-74
2023/07/01 01:02:23;;;;;;;24.92;17.90;;;25.50;95.30;;;;;;5052718;28;20044;-74
2023/07/01 01:05:49;;;;;;;25.73;16.33;;;25.50;95.40;;;;;;5053425;28;20056;-74
2023/07/01 01:09:01;;;;;;;26.85;17.02;;;25.40;95.60;;;;;;5052974;28;20048;-74
2023/07/01 01:12:09;;;;;;;32.42;18.27;;;25.40;96.10;;;;;;5052926;28;20063;-74
2023/07/01 01:15:13;;;;;;;36.38;19.23;;;25.30;96.30;;;;;;5053060;28;20044;-75
2023/07/01 01:18:19;;;;;;;31.08;19.92;;;25.20;97.10;;;;;;5052432;28;20052;-74
2023/07/01 01:21:24;;;;;;;36.95;19.23;;;25.20;97.20;;;;;;5053132;28;20535;-75
2023/07/01 01:24:33;;;;;;;33.75;20.52;;;25.20;97.50;;;;;;5052136;28;20393;-75
2023/07/01 01:27:40;;;;;;;34.17;18.92;;;25.10;97.70;;;;;;5052898;28;20047;-75
2023/07/01 01:30:43;;;;;;;34.05;19.33;;;25.10;97.70;;;;;;5051733;28;20056;-75
2023/07/01 01:33:50;;;;;;;29.88;19.85;;;25.00;98.00;;;;;;5052735;28;20503;-75
2023/07/01 01:36:57;;;;;;;28.83;20.85;;;25.00;98.10;;;;;;5052787;28;20512;-75
2023/07/01 01:40:10;;;;;;;29.73;20.33;;;25.00;98.20;;;;;;5052555;28;20503;-75
2023/07/01 01:43:34;;;;;;;26.45;19.65;;;24.90;98.00;;;;;;5052496;28;20437;-75
2023/07/01 01:46:39;;;;;;;30.73;19.85;;;24.90;98.10;;;;;;5052519;28;20044;-75
2023/07/01 01:49:45;;;;;;;29.23;19.33;;;24.80;98.10;;;;;;5051226;28;20540;-75
2023/07/01 01:52:52;;;;;;;28.10;19.85;;;24.90;98.60;;;;;;5051267;28;20043;-75
2023/07/01 01:55:57;;;;;;;27.38;20.00;;;24.90;98.20;;;;;;5052252;28;20044;-73
2023/07/01 01:59:01;;;;;;;24.63;18.38;;;24.80;98.30;;;;;;5051086;28;20052;-73
2023/07/01 02:02:05;;;;;;;29.25;19.70;;;24.70;98.80;;;;;;5051476;28;20040;-73
2023/07/01 02:05:09;;;;;;;33.20;20.55;;;24.70;98.90;;;;;;5051753;28;20047;-73
2023/07/01 02:08:15;;;;;;;29.95;20.02;;;24.70;98.90;;;;;;5051845;28;20040;-74
2023/07/01 02:11:19;;;;;;;32.58;20.40;;;24.80;99.00;;;;;;5050881;28;20052;-73
2023/07/01 02:14:23;;;;;;;24.65;18.08;;;24.80;98.70;;;;;;5051127;28;20179;-73
2023/07/01 02:17:27;;;;;;;27.92;19.42;;;24.80;98.70;;;;;;5050959;28;20050;-73
2023/07/01 02:20:31;;;;;;;26.80;19.00;;;24.80;98.30;;;;;;5051164;28;20052;-73
2023/07/01 02:23:35;;;;;;;25.05;17.48;;;24.90;98.70;;;;;;5051614;28;20048;-73
2023/07/01 02:26:39;;;;;;;26.20;17.88;;;24.90;98.60;;;;;;5051801;28;20048;-73
2023/07/01 02:29:44;;;;;;;33.45;18.10;;;25.00;98.40;;;;;;5051639;28;20051;-73
2023/07/01 02:32:48;;;;;;;23.15;18.20;;;25.00;98.30;;;;;;5051397;28;20067;-73
2023/07/01 02:35:52;;;;;;;27.15;16.23;;;25.00;98.50;;;;;;5051367;28;20055;-73
2023/07/01 02:38:56;;;;;;;24.75;15.73;;;25.10;98.70;;;;;;5051377;28;20127;-73
2023/07/01 02:42:00;;;;;;;28.13;16.35;;;25.10;98.60;;;;;;5051622;28;20577;-73
2023/07/01 02:45:04;;;;;;;47.80;11.63;;;25.20;98.10;;;;;;5050461;28;20060;-73
2023/07/01 02:48:08;;;;;;;38.65;8.10;;;25.20;96.70;;;;;;5051201;28;20503;-73
2023/07/01 02:51:12;;;;;;;43.20;6.18;;;25.10;93.30;;;;;;5051091;28;20055;-73
2023/07/01 02:54:16;;;;;;;47.65;6.10;;;24.90;92.00;;;;;;5051021;28;20039;-74
2023/07/01 02:57:20;;;;;;;16.00;5.00;;;24.80;92.00;;;;;;5050404;28;20044;-73
2023/07/01 03:00:25;;;;;;;17.98;4.50;;;24.60;92.10;;;;;;5051366;28;20052;-74
2023/07/01 03:03:29;;;;;;;14.82;4.03;;;24.50;92.40;;;;;;5050883;28;20040;-74
2023/07/01 03:06:35;;;;;;;12.40;4.32;;;24.30;92.50;;;;;;5051075;28;20048;-74
2023/07/01 03:09:39;;;;;;;10.05;4.40;;;24.10;92.70;;;;;;5051127;28;20039;-74
2023/07/01 03:12:44;;;;;;;16.67;4.80;;;23.90;93.10;;;;;;5050968;28;20074;-74
2023/07/01 03:15:50;;;;;;;10.50;3.63;;;23.80;93.40;;;;;;5050928;28;20040;-76
2023/07/01 03:18:55;;;;;;;8.50;3.38;;;23.60;93.60;;;;;;5050486;28;20075;-74
2023/07/01 03:21:58;;;;;;;9.05;3.33;;;23.50;93.80;;;;;;5050996;28;20053;-72
2023/07/01 03:25:02;;;;;;;7.65;3.47;;;23.20;93.80;;;;;;5050852;28;20536;-73
2023/07/01 03:28:07;;;;;;;6.85;3.85;;;23.10;94.10;;;;;;5050764;28;20063;-74
2023/07/01 03:31:12;;;;;;;10.45;3.40;;;23.00;94.40;;;;;;5049862;28;20045;-73
2023/07/01 03:34:16;;;;;;;10.60;4.03;;;22.90;94.70;;;;;;5050771;28;20040;-73
2023/07/01 03:37:20;;;;;;;9.05;3.47;;;22.80;94.90;;;;;;5050721;28;20120;-74
2023/07/01 03:40:24;;;;;;;13.48;3.88;;;22.50;95.20;;;;;;5051354;28;20037;-73
2023/07/01 03:43:29;;;;;;;18.88;3.38;;;22.50;95.20;;;;;;5050957;28;20052;-73
2023/07/01 03:46:33;;;;;;;10.00;3.45;;;22.70;95.00;;;;;;5050600;28;20044;-75
2023/07/01 03:49:38;;;;;;;8.85;3.17;;;22.70;94.80;;;;;;5050594;28;20048;-73
2023/07/01 03:52:42;;;;;;;12.32;3.30;;;22.80;94.90;;;;;;5050804;28;20052;-75
2023/07/01 03:55:47;;;;;;;10.25;2.88;;;22.90;94.80;;;;;;5050001;28;20040;-75
2023/07/01 03:58:52;;;;;;;9.88;3.15;;;22.90;94.80;;;;;;5050774;28;20116;-75
2023/07/01 04:01:57;;;;;;;7.95;3.53;;;22.90;94.70;;;;;;5050515;28;20033;-74
2023/07/01 04:05:09;;;;;;;9.60;3.42;;;22.90;94.60;;;;;;5050747;28;20040;-74
2023/07/01 04:08:13;;;;;;;6.72;3.30;;;22.80;94.80;;;;;;5049489;28;20041;-74
2023/07/01 04:11:17;;;;;;;19.55;3.97;;;22.80;94.80;;;;;;5050427;28;20049;-75
2023/07/01 04:14:23;;;;;;;7.57;3.55;;;22.80;95.00;;;;;;5050486;28;20044;-73
2023/07/01 04:20:53;;;;;;;8.02;3.88;;;22.60;95.50;;;;;;5053356;28;20056;-74
2023/07/01 04:23:57;;;;;;;11.32;3.53;;;22.60;95.90;;;;;;5053953;28;20038;-74
2023/07/01 04:27:01;;;;;;;13.88;4.10;;;22.70;95.80;;;;;;5054055;28;20052;-74
2023/07/01 04:30:09;;;;;;;9.05;3.80;;;22.60;96.40;;;;;;5053833;28;20040;-75
2023/07/01 04:33:13;;;;;;;9.68;4.05;;;22.40;96.90;;;;;;5053461;28;20041;-74
2023/07/01 04:36:17;;;;;;;10.88;3.70;;;22.40;97.00;;;;;;5053907;28;20048;-75
2023/07/01 04:39:23;;;;;;;8.50;4.30;;;22.40;96.50;;;;;;5053682;28;20392;-75
2023/07/01 04:42:28;;;;;;;12.40;5.05;;;22.40;96.30;;;;;;5053732;28;20044;-75
2023/07/01 04:45:33;;;;;;;9.65;5.15;;;22.30;96.50;;;;;;5052615;28;20412;-74
2023/07/01 04:48:37;;;;;;;11.05;5.03;;;22.30;96.60;;;;;;5053492;28;20499;-74
2023/07/01 04:51:42;;;;;;;9.88;4.70;;;22.40;96.80;;;;;;5053346;28;20056;-75
2023/07/01 04:54:46;;;;;;;8.57;4.40;;;22.50;96.20;;;;;;5053240;28;20043;-74
2023/07/01 04:57:51;;;;;;;8.75;4.70;;;22.50;96.10;;;;;;5053360;28;20508;-74
2023/07/01 05:00:55;;;;;;;7.30;4.47;;;22.60;96.30;;;;;;5053196;28;20041;-75
2023/07/01 05:03:59;;;;;;;10.75;4.50;;;22.60;96.60;;;;;;5053494;28;20032;-74
2023/07/01 05:07:04;;;;;;;17.02;5.05;;;22.50;96.50;;;;;;5052333;28;20044;-74
2023/07/01 05:10:08;;;;;;;7.07;4.22;;;22.30;96.70;;;;;;5052943;28;20043;-74
2023/07/01 05:13:12;;;;;;;8.57;4.03;;;22.40;97.20;;;;;;5053175;28;20056;-73
2023/07/01 05:16:16;;;;;;;12.65;4.38;;;22.50;97.00;;;;;;5052711;28;20052;-75
2023/07/01 05:19:20;;;;;;;10.45;4.32;;;22.50;97.20;;;;;;5052433;28;20060;-75
2023/07/01 05:22:24;;;;;;;10.93;4.93;;;22.50;97.40;;;;;;5052915;28;20120;-75
2023/07/01 05:25:28;;;;;;;7.63;4.78;;;22.60;97.50;;;;;;5052785;28;20039;-73
2023/07/01 05:28:32;;;;;;;8.65;4.50;;;22.70;97.30;;;;;;5052963;28;20044;-74
2023/07/01 05:31:36;;;;;;;8.40;5.20;;;22.60;97.30;;;;;;5051823;28;20049;-74
2023/07/01 05:34:40;;;;;;;9.73;5.00;;;22.60;97.00;;;;;;5052971;28;20041;-74
2023/07/01 05:37:44;;;;;;;8.88;4.65;;;22.80;97.30;;;;;;5051914;28;20048;-74
2023/07/01 05:40:48;;;;;;;7.60;4.13;;;23.20;96.80;;;;;;5052833;28;20052;-74
2023/07/01 05:43:54;;;;;;;6.05;4.15;;;23.40;96.30;;;;;;5052619;28;20051;-73
2023/07/01 05:46:58;;;;;;;12.10;4.38;;;23.70;95.60;;;;;;5052574;28;20045;-75
2023/07/01 05:50:03;;;;;;;7.82;4.18;;;23.80;95.50;;;;;;5052339;28;20044;-74
2023/07/01 05:53:08;;;;;;;6.78;3.88;;;24.00;95.80;;;;;;5052218;28;20053;-75
2023/07/01 05:56:12;;;;;;;6.88;3.83;;;24.30;95.00;;;;;;5052313;28;20036;-76
2023/07/01 05:59:16;;;;;;;11.73;4.13;;;24.40;94.80;;;;;;5051241;28;20047;-74
2023/07/01 06:02:20;;;;;;;7.32;4.22;;;24.50;94.90;;;;;;5052341;28;20044;-73
2023/07/01 06:05:24;;;;;;;6.32;3.75;;;24.80;93.70;;;;;;5052046;28;20041;-74
2023/07/01 06:08:28;;;;;;;6.40;3.70;;;24.90;93.40;;;;;;5052017;28;20143;-75
2023/07/01 06:11:32;;;;;;;7.68;4.25;;;25.10;93.50;;;;;;5051812;28;20041;-76
2023/07/01 06:14:36;;;;;;;6.90;3.70;;;25.30;93.10;;;;;;5052153;28;20061;-74
2023/07/01 06:17:39;;;;;;;6.85;3.72;;;25.30;92.70;;;;;;5051683;28;20049;-73
2023/07/01 06:20:44;;;;;;;6.22;3.95;;;25.40;92.60;;;;;;5051527;28;20051;-75
2023/07/01 06:23:53;;;;;;;9.50;4.78;;;25.60;92.10;;;;;;5051662;28;20037;-74
2023/07/01 06:26:57;;;;;;;8.95;4.32;;;25.60;92.40;;;;;;5051568;28;20048;-74
2023/07/01 06:30:03;;;;;;;13.57;4.78;;;25.70;92.30;;;;;;5051810;28;20388;-75
2023/07/01 06:33:08;;;;;;;9.65;4.57;;;26.10;92.40;;;;;;5051409;28;20052;-78
2023/07/01 06:36:18;;;;;;;9.52;5.85;;;26.30;91.90;;;;;;5050767;28;20045;-73
2023/07/01 06:39:22;;;;;;;7.03;4.47;;;26.50;90.80;;;;;;5050882;28;20044;-70
2023/07/01 06:42:26;;;;;;;7.95;4.47;;;26.60;90.40;;;;;;5051589;28;20052;-73
2023/07/01 06:45:31;;;;;;;8.82;4.65;;;26.80;90.50;;;;;;5051577;28;20041;-72
2023/07/01 06:48:35;;;;;;;8.18;4.30;;;27.00;90.30;;;;;;5051314;28;20044;-73
2023/07/01 06:51:41;;;;;;;6.47;4.43;;;27.10;90.00;;;;;;5051352;28;20055;-76
2023/07/01 06:54:46;;;;;;;9.98;4.20;;;27.30;89.30;;;;;;5051563;28;20396;-71
2023/07/01 06:57:49;;;;;;;6.97;4.68;;;27.50;87.80;;;;;;5051116;28;20045;-70
2023/07/01 07:00:53;;;;;;;10.02;4.22;;;27.80;87.40;;;;;;5050572;28;20049;-71
2023/07/01 07:03:57;;;;;;;10.73;5.35;;;27.90;86.70;;;;;;5051121;28;20044;-70
2023/07/01 07:07:01;;;;;;;10.07;4.80;;;28.00;87.40;;;;;;5050974;28;20515;-73
2023/07/01 07:10:06;;;;;;;7.63;4.72;;;28.40;87.50;;;;;;5051075;28;20044;-72
2023/07/01 07:13:10;;;;;;;7.30;4.95;;;28.60;85.30;;;;;;5050817;28;20040;-70
2023/07/01 07:16:14;;;;;;;12.00;4.63;;;28.70;85.20;;;;;;5051159;28;20044;-70
2023/07/01 07:19:19;;;;;;;9.45;4.70;;;28.90;84.30;;;;;;5050730;28;20060;-66
2023/07/01 07:22:22;;;;;;;10.82;5.07;;;28.50;84.70;;;;;;5050841;28;20048;-75
2023/07/01 07:25:26;;;;;;;8.63;5.00;;;28.10;85.40;;;;;;5051102;28;20052;-72
2023/07/01 07:28:30;;;;;;;8.32;4.88;;;27.70;85.10;;;;;;5049862;28;20033;-73
2023/07/01 07:31:35;;;;;;;7.85;4.88;;;27.50;86.50;;;;;;5050602;28;20440;-70
2023/07/01 07:34:39;;;;;;;7.97;4.68;;;27.40;86.50;;;;;;5050751;28;20586;-68
2023/07/01 07:37:43;;;;;;;8.27;5.03;;;27.50;87.70;;;;;;5050607;28;20461;-69
2023/07/01 07:40:47;;;;;;;10.30;5.20;;;27.70;87.50;;;;;;5050629;28;20050;-68
2023/07/01 07:43:51;;;;;;;8.63;4.75;;;27.90;86.40;;;;;;5050681;28;20052;-69
2023/07/01 07:46:56;;;;;;;10.20;4.85;;;27.90;85.50;;;;;;5050032;28;20366;-70
2023/07/01 07:50:01;;;;;;;10.68;5.30;;;28.10;86.20;;;;;;5050741;28;20044;-70
2023/07/01 07:53:06;;;;;;;11.73;4.72;;;28.60;85.90;;;;;;5054419;28;20079;-71
2023/07/01 07:56:09;;;;;;;12.00;5.50;;;29.00;84.50;;;;;;5054752;28;20044;-71
2023/07/01 07:59:13;;;;;;;11.68;5.88;;;29.10;83.10;;;;;;5054278;28;20124;-71
2023/07/01 08:02:17;;;;;;;15.13;6.07;;;29.20;83.60;;;;;;5054428;28;20032;-74
2023/07/01 08:05:23;;;;;;;20.15;6.30;;;29.40;83.30;;;;;;5054315;28;20047;-72
2023/07/01 08:08:27;;;;;;;10.93;5.70;;;29.80;82.70;;;;;;5054478;28;20499;-71
2023/07/01 08:11:31;;;;;;;18.45;10.20;;;30.00;82.50;;;;;;5053949;28;20064;-71
2023/07/01 08:14:35;;;;;;;13.57;6.60;;;30.40;81.90;;;;;;5054385;28;20059;-70
2023/07/01 08:17:39;;;;;;;10.02;5.40;;;30.60;79.90;;;;;;5053967;28;20122;-66
2023/07/01 08:20:44;;;;;;;17.08;7.82;;;30.70;79.50;;;;;;5054069;28;20492;-68
2023/07/01 08:23:48;;;;;;;9.18;5.82;;;30.80;79.80;;;;;;5054054;28;20116;-72
2023/07/01 08:26:52;;;;;;;13.38;6.60;;;30.80;78.70;;;;;;5053939;28;20045;-70
2023/07/01 08:29:56;;;;;;;9.25;6.05;;;30.90;79.40;;;;;;5053306;28;20048;-75
2023/07/01 08:33:00;;;;;;;7.68;5.45;;;31.00;78.10;;;;;;5041262;28;20040;-74
2023/07/01 08:36:04;;;;;;;16.00;5.82;;;31.10;78.70;;;;;;5053966;28;20041;-74
2023/07/01 08:39:08;;;;;;;11.35;5.93;;;30.90;77.70;;;;;;5053764;28;20052;-71
2023/07/01 08:42:19;;;;;;;13.45;5.78;;;30.50;77.80;;;;;;5053984;28;20056;-75
2023/07/01 08:45:25;;;;;;;9.63;5.90;;;30.40;77.70;;;;;;5053445;28;20052;-73
2023/07/01 08:48:32;;;;;;;11.80;6.35;;;30.50;78.10;;;;;;5053425;28;20044;-69
2023/07/01 08:51:43;;;;;;;15.15;5.68;;;30.80;78.10;;;;;;5053548;28;20052;-68
2023/07/01 08:54:47;;;;;;;10.43;5.22;;;31.00;77.50;;;;;;5053275;28;20036;-69
2023/07/01 08:57:52;;;;;;;9.95;5.55;;;31.10;77.40;;;;;;5053085;28;20052;-75
2023/07/01 09:00:57;;;;;;;7.70;5.30;;;31.20;76.50;;;;;;5051823;28;20491;-76
2023/07/01 09:04:01;;;;;;;8.30;5.22;;;31.30;77.10;;;;;;5052679;28;20151;-74
2023/07/01 09:07:07;;;;;;;13.38;5.88;;;31.30;76.20;;;;;;5052403;28;20053;-76
2023/07/01 09:10:13;;;;;;;8.32;5.18;;;31.30;76.30;;;;;;5052537;28;20048;-75
2023/07/01 09:13:16;;;;;;;10.55;5.85;;;31.30;75.80;;;;;;5053011;28;20055;-77
2023/07/01 09:16:34;;;;;;;9.77;5.72;;;31.40;76.20;;;;;;5053012;28;20040;-75
2023/07/01 09:19:51;;;;;;;9.68;5.55;;;31.50;76.40;;;;;;5052757;28;20070;-74
2023/07/01 09:23:01;;;;;;;12.00;5.82;;;31.50;76.00;;;;;;5052290;28;20040;-75
2023/07/01 09:26:13;;;;;;;8.43;5.60;;;31.60;75.90;;;;;;5053381;28;20496;-76
2023/07/01 09:29:19;;;;;;;8.75;6.03;;;31.40;76.50;;;;;;5052735;28;20048;-75
2023/07/01 09:32:29;;;;;;;16.30;6.40;;;31.40;76.50;;;;;;5052577;28;20056;-76
2023/07/01 09:35:44;;;;;;;14.13;6.13;;;31.50;75.90;;;;;;5052656;28;20051;-75
2023/07/01 09:38:51;;;;;;;15.60;7.03;;;31.60;76.30;;;;;;5052302;28;20043;-75
2023/07/01 09:42:03;;;;;;;11.93;6.00;;;31.60;75.90;;;;;;5052766;28;20496;-77
2023/07/01 09:45:08;;;;;;;14.55;6.38;;;31.60;76.70;;;;;;5053070;28;20048;-76
2023/07/01 09:48:14;;;;;;;12.15;6.63;;;31.60;76.30;;;;;;5053785;28;20491;-76
2023/07/01 09:51:19;;;;;;;11.45;6.65;;;31.50;76.50;;;;;;5052743;28;20047;-75
2023/07/01 09:54:24;;;;;;;10.10;6.28;;;31.40;77.10;;;;;;5053065;28;20060;-80
2023/07/01 09:57:28;;;;;;;11.93;6.18;;;31.30;77.30;;;;;;5052620;28;20040;-79
2023/07/01 10:00:32;;;;;;;13.88;5.47;;;31.30;78.30;;;;;;5053061;28;20055;-79
2023/07/01 10:03:37;;;;;;;10.68;6.00;;;31.40;77.90;;;;;;5052022;28;20048;-78
2023/07/01 10:06:44;;;;;;;17.23;5.82;;;31.40;77.40;;;;;;5051967;28;20036;-78
2023/07/01 10:09:51;;;;;;;14.43;6.55;;;31.40;78.90;;;;;;5052378;28;20487;-78
2023/07/01 10:13:01;;;;;;;12.35;6.28;;;31.40;77.60;;;;;;5052033;28;20052;-77
2023/07/01 10:16:06;;;;;;;13.00;6.33;;;31.40;78.10;;;;;;5052011;28;20040;-80
2023/07/01 10:19:27;;;;;;;12.73;6.80;;;31.40;77.60;;;;;;5051984;28;20048;-79
2023/07/01 10:22:31;;;;;;;13.05;7.28;;;31.40;76.80;;;;;;5051746;28;20040;-80
2023/07/01 10:25:37;;;;;;;8.63;5.65;;;31.40;77.40;;;;;;5051959;28;20412;-79
2023/07/01 10:28:41;;;;;;;12.50;6.85;;;31.40;78.00;;;;;;5051602;28;20393;-79
2023/07/01 10:32:08;;;;;;;10.13;6.65;;;31.40;78.10;;;;;;5051497;28;20063;-80
2023/07/01 10:35:14;;;;;;;17.17;6.80;;;31.30;78.80;;;;;;5050703;28;20066;-78
2023/07/01 10:38:22;;;;;;;9.25;6.10;;;31.30;78.00;;;;;;5050821;28;20040;-79
2023/07/01 10:41:50;;;;;;;8.77;5.85;;;31.20;78.30;;;;;;5051105;28;20037;-80
2023/07/01 10:45:11;;;;;;;11.13;6.25;;;31.30;78.20;;;;;;5055020;28;20056;-80
2023/07/01 10:48:16;;;;;;;10.23;5.93;;;31.20;76.80;;;;;;5051262;28;20048;-81
2023/07/01 10:51:20;;;;;;;16.02;6.32;;;31.20;77.30;;;;;;5051092;28;20052;-82
2023/07/01 10:54:32;;;;;;;14.50;6.90;;;31.20;78.90;;;;;;5051608;28;20047;-80
2023/07/01 10:57:36;;;;;;;13.43;6.10;;;31.20;76.60;;;;;;5051235;28;20047;-80
2023/07/01 11:00:41;;;;;;;10.10;5.68;;;31.20;77.90;;;;;;5051168;28;20048;-79
2023/07/01 11:03:45;;;;;;;9.25;5.28;;;31.10;78.10;;;;;;5051057;28;20526;-79
2023/07/01 11:06:51;;;;;;;11.60;5.88;;;30.90;79.10;;;;;;5051055;28;20040;-80
2023/07/01 11:09:55;;;;;;;9.93;5.68;;;30.90;79.70;;;;;;5050997;28;20048;-78
2023/07/01 11:13:04;;;;;;;9.63;5.65;;;30.90;79.10;;;;;;5051010;28;20060;-79
2023/07/01 11:16:10;;;;;;;19.33;5.35;;;30.90;79.80;;;;;;5051297;28;20029;-79
2023/07/01 11:19:16;;;;;;;11.32;5.50;;;30.80;79.20;;;;;;5050983;28;20052;-78
2023/07/01 11:22:20;;;;;;;9.02;4.88;;;30.80;78.70;;;;;;5050103;28;20044;-78
2023/07/01 11:25:24;;;;;;;12.23;5.03;;;30.70;78.40;;;;;;5052982;28;20049;-80
2023/07/01 11:28:36;;;;;;;12.35;5.82;;;30.70;77.50;;;;;;5055332;28;20051;-81
2023/07/01 11:31:41;;;;;;;9.50;5.40;;;30.60;78.60;;;;;;5054953;28;20171;-78
2023/07/01 11:34:49;;;;;;;9.02;4.97;;;30.60;78.50;;;;;;5054307;28;20072;-78
2023/07/01 11:37:53;;;;;;;9.05;5.95;;;30.60;78.70;;;;;;5054702;28;20037;-79
2023/07/01 11:40:57;;;;;;;7.32;4.82;;;30.60;80.40;;;;;;5054742;28;20044;-79
2023/07/01 11:44:02;;;;;;;10.10;4.90;;;30.60;79.30;;;;;;5054968;28;20099;-79
2023/07/01 11:47:13;;;;;;;10.82;5.00;;;30.60;79.50;;;;;;5055214;28;20202;-79
2023/07/01 11:50:17;;;;;;;12.18;6.80;;;30.60;78.90;;;;;;5054981;28;20404;-78
2023/07/01 11:53:21;;;;;;;13.23;5.38;;;30.60;79.40;;;;;;5054515;28;20056;-80
2023/07/01 11:56:25;;;;;;;7.90;5.35;;;30.60;79.00;;;;;;5054363;28;20191;-78
2023/07/01 11:59:31;;;;;;;13.85;5.63;;;30.60;79.10;;;;;;5054487;28;20040;-79
2023/07/01 12:02:35;;;;;;;11.23;5.45;;;30.60;79.90;;;;;;5055840;28;20064;-78
2023/07/01 12:05:43;;;;;;;12.32;5.50;;;30.70;79.90;;;;;;5055908;28;20040;-81
2023/07/01 12:08:55;;;;;;;8.70;4.80;;;30.60;79.60;;;;;;5054314;28;20044;-79
2023/07/01 12:11:58;;;;;;;8.15;4.63;;;30.70;79.00;;;;;;5055383;28;20041;-78
2023/07/01 12:15:05;;;;;;;11.50;5.53;;;30.70;78.60;;;;;;5055470;28;20611;-81
2023/07/01 12:18:22;;;;;;;9.55;5.07;;;30.70;78.60;;;;;;5056869;28;20048;-80
2023/07/01 12:21:28;;;;;;;12.00;5.20;;;30.80;78.90;;;;;;5055381;28;20041;-79
2023/07/01 12:24:32;;;;;;;11.65;5.53;;;30.80;79.40;;;;;;5055268;28;20519;-82
2023/07/01 12:27:37;;;;;;;15.10;5.15;;;30.60;80.00;;;;;;5055301;28;20059;-77
2023/07/01 12:30:43;;;;;;;12.10;6.18;;;30.50;79.70;;;;;;5055260;28;20051;-80
2023/07/01 12:33:47;;;;;;;14.30;5.88;;;30.40;79.70;;;;;;5053800;28;20048;-80
2023/07/01 12:36:53;;;;;;;11.75;6.22;;;30.40;79.80;;;;;;5053167;28;20047;-80
2023/07/01 12:39:58;;;;;;;13.75;6.13;;;30.20;79.50;;;;;;5053049;28;20048;-81
2023/07/01 12:43:03;;;;;;;13.18;6.00;;;30.20;80.10;;;;;;5053448;28;20104;-79
2023/07/01 12:46:08;;;;;;;14.52;5.63;;;30.20;79.00;;;;;;5052438;28;20052;-79
2023/07/01 12:49:13;;;;;;;11.80;6.03;;;30.20;79.20;;;;;;5053371;28;20191;-75
2023/07/01 12:52:17;;;;;;;10.85;5.72;;;30.10;78.90;;;;;;5053305;28;20052;-75
2023/07/01 12:55:21;;;;;;;9.07;5.28;;;30.10;78.40;;;;;;5053468;28;20047;-77
2023/07/01 12:58:25;;;;;;;10.43;5.28;;;30.10;78.00;;;;;;5053290;28;20041;-74
2023/07/01 13:01:29;;;;;;;11.32;5.90;;;30.10;77.30;;;;;;5053235;28;20048;-72
2023/07/01 13:04:33;;;;;;;13.02;4.97;;;30.10;77.10;;;;;;5053325;28;20036;-78
2023/07/01 13:07:38;;;;;;;12.82;5.45;;;30.00;78.00;;;;;;5053411;28;20499;-77
2023/07/01 13:10:42;;;;;;;13.23;5.05;;;29.90;78.10;;;;;;5053307;28;20488;-77
2023/07/01 13:13:51;;;;;;;13.02;5.07;;;29.80;78.80;;;;;;5053626;28;20111;-78
2023/07/01 13:16:55;;;;;;;16.52;5.00;;;29.70;78.50;;;;;;5052987;28;20044;-80
2023/07/01 13:19:59;;;;;;;16.48;4.90;;;29.60;79.10;;;;;;5052874;28;20508;-78
2023/07/01 13:23:03;;;;;;;10.38;4.40;;;29.50;79.20;;;;;;5053089;28;20060;-77
2023/07/01 13:26:07;;;;;;;15.82;4.32;;;29.40;79.90;;;;;;5052887;28;20533;-77
2023/07/01 13:29:16;;;;;;;9.75;4.28;;;29.40;79.60;;;;;;5052842;28;20044;-77
2023/07/01 13:32:23;;;;;;;17.60;4.93;;;29.50;79.00;;;;;;5052919;28;20054;-76
2023/07/01 13:35:27;;;;;;;13.43;4.55;;;29.40;77.60;;;;;;5052867;28;20491;-75
2023/07/01 13:38:31;;;;;;;13.88;3.85;;;29.40;78.40;;;;;;5052609;28;20120;-77
2023/07/01 13:41:35;;;;;;;11.77;4.18;;;29.40;78.20;;;;;;5052923;28;20048;-74
2023/07/01 13:44:39;;;;;;;11.27;4.25;;;29.40;78.00;;;;;;5052748;28;20056;-71
2023/07/01 13:47:47;;;;;;;7.32;3.10;;;29.40;78.10;;;;;;5052267;28;20059;-71
2023/07/01 13:50:52;;;;;;;16.73;4.32;;;29.40;78.10;;;;;;5052322;28;20111;-71
2023/07/01 13:53:56;;;;;;;13.90;4.70;;;29.40;77.80;;;;;;5052635;28;20052;-71
2023/07/01 13:57:01;;;;;;;12.07;4.30;;;29.40;77.00;;;;;;5051688;28;20044;-85
2023/07/01 14:00:11;;;;;;;14.43;4.75;;;29.40;77.40;;;;;;5052738;28;20048;-84
2023/07/01 14:03:21;;;;;;;11.93;4.72;;;29.40;77.10;;;;;;5052678;28;20048;-88
2023/07/01 14:06:25;;;;;;;11.20;4.45;;;29.40;77.60;;;;;;5057267;28;20049;-86
2023/07/01 14:09:31;;;;;;;14.57;4.32;;;29.50;77.30;;;;;;5055087;28;20397;-86
2023/07/01 14:12:36;;;;;;;12.77;4.03;;;29.60;77.80;;;;;;5055721;28;20051;-85
2023/07/01 14:15:44;;;;;;;12.25;4.20;;;29.60;76.90;;;;;;5055811;28;20044;-85
2023/07/01 14:18:50;;;;;;;18.02;7.05;;;29.60;76.90;;;;;;5055431;28;20504;-84
2023/07/01 14:21:56;;;;;;;11.38;3.75;;;29.60;76.50;;;;;;5054700;28;20048;-86
2023/07/01 14:25:01;;;;;;;14.95;4.38;;;29.70;77.00;;;;;;5055607;28;20051;-84
2023/07/01 14:28:09;;;;;;;13.75;4.75;;;29.70;77.30;;;;;;5055837;28;20112;-86
2023/07/01 14:31:17;;;;;;;10.50;3.95;;;29.60;77.10;;;;;;5053922;28;20043;-85
2023/07/01 14:34:33;;;;;;;11.57;4.35;;;29.60;76.40;;;;;;5054027;28;20413;-83
2023/07/01 14:37:38;;;;;;;11.23;4.00;;;29.60;76.80;;;;;;5053058;28;20527;-84
2023/07/01 14:40:42;;;;;;;16.52;5.07;;;29.50;76.80;;;;;;5052420;28;20040;-84
2023/07/01 14:43:49;;;;;;;8.43;4.00;;;29.50;75.90;;;;;;5052818;28;20048;-86
2023/07/01 14:46:53;;;;;;;10.88;4.47;;;29.60;76.40;;;;;;5053683;28;20052;-83
2023/07/01 14:49:57;;;;;;;17.50;3.85;;;29.70;76.00;;;;;;5054629;28;20044;-85
2023/07/01 14:53:01;;;;;;;11.77;4.50;;;29.70;75.40;;;;;;5054546;28;20051;-82
2023/07/01 14:56:06;;;;;;;16.77;4.90;;;29.70;75.10;;;;;;5053855;28;20048;-84
2023/07/01 14:59:10;;;;;;;16.60;4.55;;;29.70;74.40;;;;;;5053219;28;20511;-87
2023/07/01 15:02:14;;;;;;;14.90;4.15;;;29.70;74.30;;;;;;5051608;28;20044;-84
2023/07/01 15:05:18;;;;;;;11.82;4.35;;;29.60;74.70;;;;;;5052415;28;20044;-88
2023/07/01 15:08:22;;;;;;;12.65;4.22;;;29.50;75.00;;;;;;5052409;28;20043;-83
2023/07/01 15:11:26;;;;;;;12.75;3.88;;;29.50;75.50;;;;;;5052445;28;20048;-82
2023/07/01 15:14:30;;;;;;;16.20;4.13;;;29.50;76.20;;;;;;5054191;28;20059;-84
2023/07/01 15:17:34;;;;;;;21.08;4.78;;;29.50;75.90;;;;;;5052839;28;20384;-84
2023/07/01 15:20:38;;;;;;;13.90;4.63;;;29.50;76.20;;;;;;5052295;28;20052;-85
2023/07/01 15:23:43;;;;;;;15.25;4.65;;;29.50;76.20;;;;;;5051633;28;20045;-76
2023/07/01 15:26:47;;;;;;;20.10;5.13;;;29.50;75.40;;;;;;5050993;28;20040;-78
2023/07/01 15:29:51;;;;;;;13.35;4.38;;;29.50;75.80;;;;;;5051275;28;20040;-76
2023/07/01 15:32:55;;;;;;;14.38;5.05;;;29.40;75.90;;;;;;5050790;28;20056;-75
2023/07/01 15:35:59;;;;;;;16.45;4.35;;;29.40;75.10;;;;;;5050905;28;20077;-77
2023/07/01 15:39:03;;;;;;;20.63;5.35;;;29.30;75.50;;;;;;5050973;28;20060;-77
2023/07/01 15:42:07;;;;;;;17.67;5.30;;;29.30;75.20;;;;;;5052098;28;20400;-76
2023/07/01 15:45:11;;;;;;;22.27;5.85;;;29.20;75.00;;;;;;5050768;28;20048;-75
2023/07/01 15:48:16;;;;;;;24.65;5.43;;;29.20;75.10;;;;;;5050958;28;20053;-77
2023/07/01 15:51:20;;;;;;;16.92;4.60;;;29.10;75.00;;;;;;5050983;28;20499;-82
2023/07/01 15:54:24;;;;;;;16.83;5.22;;;29.10;74.90;;;;;;5050647;28;20052;-78
2023/07/01 15:57:29;;;;;;;16.25;5.13;;;29.10;73.30;;;;;;5049856;28;20044;-80